Time;durP1;ratioP1;P1;durP2;ratioP2;P2;SDS_P1;SDS_P2;PMS_P1;PMS_P2;Temp;Humidity;BMP_temperature;BMP_pressure;BME280_temperature;BME280_humidity;BME280_pressure;Samples;Min_cycle;Max_cycle;Signal;HPM_P1;HPM_P2
2021/07/27 02:46:52;;;;;;;6.07;2.80;;;22.50;83.20;;;;;;5097881;24;20054;-77
2021/07/27 02:49:18;;;;;;;2.90;2.33;;;22.50;83.60;;;;;;4837165;29;20123;-77
2021/07/27 02:51:49;;;;;;;3.50;2.20;;;22.50;83.40;;;;;;4834204;29;20034;-78
2021/07/27 02:54:14;;;;;;;4.05;2.20;;;22.50;83.50;;;;;;4847671;29;20064;-77
2021/07/27 02:56:40;;;;;;;2.40;2.08;;;22.50;83.50;;;;;;4852322;29;20029;-77
2021/07/27 02:59:06;;;;;;;2.15;1.95;;;22.50;83.80;;;;;;4852210;29;20038;-77
2021/07/27 03:01:32;;;;;;;3.45;1.73;;;22.50;84.00;;;;;;4853235;29;20390;-77
2021/07/27 03:03:58;;;;;;;7.03;2.60;;;22.40;84.30;;;;;;4853373;29;20081;-77
2021/07/27 03:06:23;;;;;;;2.72;1.70;;;22.40;84.60;;;;;;4836939;29;20034;-77
2021/07/27 03:11:21;;;;;;;3.03;1.88;;;22.30;84.70;;;;;;4853216;29;20030;-77
2021/07/27 03:13:47;;;;;;;2.60;2.40;;;22.40;84.60;;;;;;4853501;29;20055;-77
2021/07/27 03:16:18;;;;;;;2.28;1.88;;;22.30;84.70;;;;;;4852112;29;20049;-77
2021/07/27 03:18:45;;;;;;;5.80;2.45;;;22.40;84.50;;;;;;4852166;29;20030;-77
2021/07/27 03:21:11;;;;;;;2.75;2.20;;;22.40;84.40;;;;;;4836425;29;20036;-77
2021/07/27 03:23:37;;;;;;;5.13;2.08;;;22.40;83.90;;;;;;4852113;29;20113;-77
2021/07/27 03:26:03;;;;;;;2.50;2.08;;;22.50;83.90;;;;;;4836800;29;20199;-77
2021/07/27 03:28:28;;;;;;;2.35;1.90;;;22.40;84.10;;;;;;4852861;29;20135;-77
2021/07/27 03:30:54;;;;;;;2.53;1.90;;;22.50;83.90;;;;;;4836683;29;20037;-77
2021/07/27 03:33:20;;;;;;;2.10;1.90;;;22.40;83.90;;;;;;4853105;29;20319;-77
2021/07/27 03:35:46;;;;;;;4.40;1.92;;;22.50;83.80;;;;;;4852019;29;20062;-77
2021/07/27 03:38:11;;;;;;;3.63;2.22;;;22.40;83.70;;;;;;4852041;29;20221;-77
2021/07/27 03:40:38;;;;;;;2.58;2.38;;;22.50;83.70;;;;;;4851934;29;20037;-77
2021/07/27 03:43:03;;;;;;;7.00;2.40;;;22.50;83.60;;;;;;4851915;29;20126;-77
2021/07/27 03:45:29;;;;;;;2.97;2.20;;;22.50;83.60;;;;;;4847999;29;20610;-81
2021/07/27 03:47:55;;;;;;;4.05;2.67;;;22.60;83.30;;;;;;4833892;29;20280;-77
2021/07/27 03:50:21;;;;;;;3.75;2.53;;;22.60;83.10;;;;;;4833605;29;20058;-77
2021/07/27 03:52:46;;;;;;;4.13;2.08;;;22.60;83.70;;;;;;4833874;29;20027;-77
2021/07/27 03:55:13;;;;;;;2.47;2.22;;;22.60;83.30;;;;;;4833472;29;20113;-77
2021/07/27 03:57:38;;;;;;;5.40;2.53;;;22.50;83.00;;;;;;4833602;29;20049;-77
2021/07/27 04:00:05;;;;;;;3.53;2.08;;;22.50;83.10;;;;;;4835014;29;20058;-77
2021/07/27 04:02:31;;;;;;;5.28;2.70;;;22.50;83.30;;;;;;4833561;29;20097;-76
2021/07/27 04:04:57;;;;;;;3.58;2.33;;;22.50;83.20;;;;;;4833751;29;20041;-78
2021/07/27 04:07:22;;;;;;;4.70;2.75;;;22.50;83.50;;;;;;4834455;29;20032;-78
2021/07/27 04:09:48;;;;;;;4.18;2.35;;;22.50;83.20;;;;;;4818110;29;20031;-77
2021/07/27 04:12:14;;;;;;;2.90;2.03;;;22.60;82.90;;;;;;4833511;29;20035;-77
2021/07/27 04:14:40;;;;;;;3.90;2.58;;;22.60;83.10;;;;;;4818536;29;20045;-77
2021/07/27 04:17:05;;;;;;;2.85;2.28;;;22.60;82.80;;;;;;4833737;29;20199;-77
2021/07/27 04:19:31;;;;;;;2.97;2.50;;;22.70;82.80;;;;;;4818308;29;20034;-77
2021/07/27 04:21:57;;;;;;;3.25;2.65;;;22.80;82.50;;;;;;4833813;29;20054;-77
2021/07/27 04:24:23;;;;;;;4.43;2.92;;;22.80;82.20;;;;;;4834069;29;20034;-77
2021/07/27 04:26:49;;;;;;;4.07;2.75;;;22.90;82.00;;;;;;4834088;29;20035;-77
2021/07/27 04:29:18;;;;;;;3.40;2.53;;;23.00;81.70;;;;;;4833078;29;20026;-77
2021/07/27 04:31:48;;;;;;;3.33;2.83;;;23.10;81.10;;;;;;4832642;29;20022;-77
2021/07/27 04:34:14;;;;;;;3.45;2.55;;;23.10;80.80;;;;;;4835880;29;20030;-77
2021/07/27 04:36:40;;;;;;;3.70;2.72;;;23.10;80.20;;;;;;4836361;29;20030;-77
2021/07/27 04:39:06;;;;;;;7.88;5.30;;;23.10;80.20;;;;;;4837484;29;20030;-79
2021/07/27 04:41:35;;;;;;;5.75;3.53;;;23.20;80.30;;;;;;4833874;29;20038;-78
2021/07/27 04:44:05;;;;;;;5.28;2.40;;;23.20;80.00;;;;;;4816944;29;20034;-78
2021/07/27 04:46:31;;;;;;;5.50;3.03;;;23.20;79.20;;;;;;4836164;29;20563;-79
2021/07/27 04:48:56;;;;;;;3.13;2.25;;;23.20;79.80;;;;;;4838001;29;20139;-78
2021/07/27 04:51:22;;;;;;;2.63;2.15;;;23.30;80.00;;;;;;4821569;29;20031;-79
2021/07/27 04:53:49;;;;;;;5.03;2.72;;;23.30;79.00;;;;;;4837424;29;20030;-78
2021/07/27 04:56:15;;;;;;;3.97;2.55;;;23.40;78.60;;;;;;4820960;29;20106;-79
2021/07/27 04:58:40;;;;;;;3.75;2.60;;;23.50;78.60;;;;;;4836792;29;20075;-78
2021/07/27 05:01:06;;;;;;;2.80;2.42;;;23.60;78.40;;;;;;4836303;29;20083;-79
2021/07/27 05:03:32;;;;;;;7.13;2.92;;;23.60;78.10;;;;;;4836274;29;20022;-78
2021/07/27 05:05:58;;;;;;;5.18;2.80;;;23.70;78.10;;;;;;4836156;29;20037;-79
2021/07/27 05:08:24;;;;;;;3.53;2.55;;;23.80;77.50;;;;;;4821417;29;20031;-79
2021/07/27 05:10:49;;;;;;;3.60;2.30;;;23.90;76.90;;;;;;4836334;29;20026;-79
2021/07/27 05:13:15;;;;;;;3.45;2.35;;;23.90;76.50;;;;;;4836030;29;20027;-78
2021/07/27 05:15:41;;;;;;;3.78;2.60;;;24.00;76.60;;;;;;4836483;29;20033;-78
2021/07/27 05:18:07;;;;;;;3.63;2.42;;;24.10;76.50;;;;;;4821054;29;20045;-79
2021/07/27 05:20:32;;;;;;;4.22;2.78;;;24.10;76.50;;;;;;4821306;29;20105;-78
2021/07/27 05:22:58;;;;;;;3.95;2.67;;;24.10;76.30;;;;;;4836352;29;20050;-79
2021/07/27 05:25:24;;;;;;;9.38;3.00;;;24.10;76.10;;;;;;4836276;29;20115;-78
2021/07/27 05:27:50;;;;;;;3.13;2.42;;;24.20;75.80;;;;;;4836148;29;20071;-79
2021/07/27 05:30:16;;;;;;;3.75;2.63;;;24.30;76.00;;;;;;4836666;29;20053;-79
2021/07/27 05:32:43;;;;;;;5.30;2.58;;;24.40;75.60;;;;;;4836979;29;20058;-79
2021/07/27 05:35:10;;;;;;;3.40;2.63;;;24.50;75.60;;;;;;4821367;29;20325;-78
2021/07/27 05:37:36;;;;;;;4.50;2.88;;;24.50;74.70;;;;;;4836464;29;20034;-79
2021/07/27 05:40:03;;;;;;;6.03;2.92;;;24.50;75.00;;;;;;4836024;29;20074;-79
2021/07/27 05:42:28;;;;;;;;;;;24.50;74.50;;;;;;4835917;29;20075;-79
2021/07/27 05:44:54;;;;;;;3.37;2.23;;;24.70;74.90;;;;;;4821031;29;19979;-78
2021/07/27 05:47:20;;;;;;;3.53;2.97;;;24.90;74.40;;;;;;4820620;29;20050;-79
2021/07/27 05:49:46;;;;;;;3.25;2.55;;;25.00;73.30;;;;;;4821191;29;20214;-79
2021/07/27 05:52:12;;;;;;;3.90;2.53;;;25.30;73.10;;;;;;4835785;29;20041;-78
2021/07/27 05:54:39;;;;;;;4.00;2.53;;;25.50;71.30;;;;;;4820672;29;20074;-79
2021/07/27 05:57:12;;;;;;;3.92;2.60;;;25.50;70.50;;;;;;4836120;29;20035;-78
2021/07/27 05:59:40;;;;;;;5.10;2.55;;;25.70;71.20;;;;;;4815485;29;20078;-78
2021/07/27 06:02:07;;;;;;;4.93;2.60;;;25.80;71.30;;;;;;4835966;29;20046;-79
2021/07/27 06:04:33;;;;;;;5.50;2.55;;;26.10;69.90;;;;;;4836066;29;20358;-79
2021/07/27 06:06:58;;;;;;;3.78;2.72;;;26.60;67.80;;;;;;4835551;29;20034;-78
2021/07/27 06:09:24;;;;;;;4.88;2.63;;;27.00;67.10;;;;;;4835552;29;20087;-78
2021/07/27 06:11:50;;;;;;;4.13;2.75;;;27.40;66.20;;;;;;4834428;29;20236;-79
2021/07/27 06:14:16;;;;;;;9.02;2.80;;;27.60;65.00;;;;;;4834036;29;20064;-78
2021/07/27 06:16:42;;;;;;;9.10;2.63;;;27.80;64.80;;;;;;4809878;29;20038;-78
2021/07/27 06:19:08;;;;;;;6.05;2.65;;;27.90;65.20;;;;;;4828586;29;20026;-78
2021/07/27 06:21:38;;;;;;;6.35;2.67;;;28.20;64.80;;;;;;4820215;29;20049;-78
2021/07/27 06:24:04;;;;;;;5.55;2.95;;;28.40;63.60;;;;;;4836508;29;20026;-78
2021/07/27 06:26:30;;;;;;;;;;;28.50;62.00;;;;;;4837152;29;20037;-78
2021/07/27 06:28:56;;;;;;;6.23;2.60;;;28.60;62.70;;;;;;4820697;29;19909;-78
2021/07/27 06:31:22;;;;;;;3.05;2.35;;;28.70;62.60;;;;;;4835248;29;20113;-78
2021/07/27 06:33:48;;;;;;;3.13;2.72;;;28.80;59.60;;;;;;4835250;29;20037;-78
2021/07/27 06:36:14;;;;;;;3.78;2.58;;;28.90;60.60;;;;;;4835485;29;20087;-78
2021/07/27 06:38:40;;;;;;;5.65;2.60;;;29.00;60.20;;;;;;4834948;29;20030;-78
2021/07/27 06:41:10;;;;;;;3.85;2.53;;;29.00;60.40;;;;;;4836342;29;20053;-78
2021/07/27 06:43:38;;;;;;;4.50;2.50;;;29.10;60.50;;;;;;4834613;29;20046;-78
2021/07/27 06:46:04;;;;;;;2.83;2.05;;;29.30;59.50;;;;;;4835602;29;20054;-79
2021/07/27 06:48:30;;;;;;;3.35;2.03;;;29.50;60.10;;;;;;4832560;29;20217;-79
2021/07/27 06:50:56;;;;;;;3.70;2.65;;;29.50;58.80;;;;;;4832355;29;20050;-79
2021/07/27 06:53:23;;;;;;;2.60;2.38;;;29.60;58.40;;;;;;4833189;29;20070;-80
2021/07/27 06:55:49;;;;;;;3.50;2.50;;;29.50;58.30;;;;;;4802211;29;20031;-80
2021/07/27 06:58:15;;;;;;;4.03;2.23;;;29.70;59.10;;;;;;4820725;29;20375;-79
2021/07/27 07:00:41;;;;;;;5.63;2.60;;;29.80;57.30;;;;;;4832111;29;20031;-80
2021/07/27 07:03:07;;;;;;;5.13;3.53;;;29.80;57.50;;;;;;4835220;29;20337;-80
2021/07/27 07:05:33;;;;;;;4.57;2.70;;;29.60;57.40;;;;;;4835151;29;20451;-79
2021/07/27 07:08:00;;;;;;;5.80;2.60;;;29.50;57.10;;;;;;4835754;29;20206;-79
2021/07/27 07:10:26;;;;;;;4.17;3.10;;;29.50;56.30;;;;;;4837235;29;20094;-78
2021/07/27 07:12:51;;;;;;;2.93;2.60;;;29.50;56.50;;;;;;4821805;29;20287;-78
2021/07/27 07:15:17;;;;;;;4.17;2.50;;;29.50;56.20;;;;;;4819263;29;20058;-78
2021/07/27 07:17:43;;;;;;;13.17;7.57;;;29.60;56.20;;;;;;4820476;29;20312;-77
2021/07/27 07:20:09;;;;;;;4.33;3.30;;;29.70;57.70;;;;;;4834112;29;20046;-76
2021/07/27 07:22:36;;;;;;;8.13;2.85;;;29.80;55.40;;;;;;4834763;29;20054;-76
2021/07/27 07:25:03;;;;;;;6.33;2.60;;;29.80;54.00;;;;;;4833878;29;20183;-76
2021/07/27 07:27:28;;;;;;;3.83;2.17;;;29.60;54.70;;;;;;4832567;29;20026;-77
2021/07/27 07:29:55;;;;;;;4.53;2.93;;;29.50;56.00;;;;;;4832533;29;20037;-76
2021/07/27 07:32:21;;;;;;;3.72;2.58;;;29.50;56.20;;;;;;4832498;29;20082;-76
2021/07/27 07:34:47;;;;;;;3.97;2.95;;;29.40;55.60;;;;;;4834154;29;20038;-79
2021/07/27 07:37:12;;;;;;;3.20;2.50;;;29.50;56.80;;;;;;4833100;29;20037;-79
2021/07/27 07:39:38;;;;;;;3.47;2.60;;;29.60;56.80;;;;;;4818662;29;20356;-78
2021/07/27 07:42:05;;;;;;;4.27;2.83;;;29.80;56.80;;;;;;4834009;29;20034;-78
2021/07/27 07:44:32;;;;;;;4.03;2.72;;;29.90;55.80;;;;;;4835178;29;20302;-78
2021/07/27 07:46:57;;;;;;;;;;;30.00;56.00;;;;;;4823637;29;20106;-77
2021/07/27 07:49:23;;;;;;;2.90;2.20;;;30.00;55.60;;;;;;4834163;29;19950;-78
2021/07/27 07:51:50;;;;;;;3.50;2.90;;;29.90;56.80;;;;;;4834962;29;20079;-78
2021/07/27 07:54:16;;;;;;;6.25;3.15;;;30.00;56.90;;;;;;4835308;29;20439;-77
2021/07/27 07:56:43;;;;;;;16.40;3.17;;;30.00;56.50;;;;;;4834243;29;20033;-78
2021/07/27 07:59:09;;;;;;;;;;;30.00;57.10;;;;;;4834563;29;20044;-78
2021/07/27 08:01:35;;;;;;;3.70;2.67;;;29.80;54.80;;;;;;4834132;29;20175;-77
2021/07/27 08:04:01;;;;;;;10.73;3.00;;;29.80;56.30;;;;;;4834537;29;20049;-79
2021/07/27 08:06:29;;;;;;;4.20;3.10;;;30.00;56.70;;;;;;4837061;29;20104;-80
2021/07/27 08:08:54;;;;;;;5.47;3.13;;;30.00;54.40;;;;;;4837519;29;20076;-78
2021/07/27 08:11:20;;;;;;;2.93;2.60;;;29.90;55.50;;;;;;4837414;29;20038;-79
2021/07/27 08:13:46;;;;;;;3.80;3.03;;;30.00;57.30;;;;;;4837872;29;20038;-82
2021/07/27 08:16:12;;;;;;;6.67;2.93;;;30.00;57.10;;;;;;4837412;29;20105;-79
2021/07/27 08:18:38;;;;;;;4.50;2.90;;;30.10;56.00;;;;;;4822864;29;20038;-79
2021/07/27 08:21:04;;;;;;;4.30;2.60;;;30.30;56.20;;;;;;4837543;29;20275;-78
2021/07/27 08:23:31;;;;;;;6.73;2.60;;;30.30;56.90;;;;;;4837437;29;20110;-79
2021/07/27 08:25:57;;;;;;;3.97;2.80;;;30.50;56.00;;;;;;4822602;29;20068;-82
2021/07/27 08:28:22;;;;;;;3.17;2.80;;;30.50;55.00;;;;;;4834106;29;20037;-80
2021/07/27 08:30:48;;;;;;;6.13;2.60;;;30.70;55.50;;;;;;4834865;29;20038;-78
2021/07/27 08:33:14;;;;;;;4.77;2.50;;;30.40;55.10;;;;;;4836537;29;20075;-82
2021/07/27 08:35:40;;;;;;;5.20;3.27;;;30.50;56.60;;;;;;4821982;29;20034;-80
2021/07/27 08:38:06;;;;;;;10.27;3.43;;;30.50;54.20;;;;;;4837743;29;20094;-76
2021/07/27 08:40:35;;;;;;;13.20;3.20;;;30.30;55.90;;;;;;4836382;29;20075;-78
2021/07/27 08:43:05;;;;;;;10.25;3.50;;;30.40;57.00;;;;;;4835872;29;20156;-78
2021/07/27 08:45:32;;;;;;;15.27;4.30;;;30.50;54.60;;;;;;4833371;29;20098;-80
2021/07/27 08:47:59;;;;;;;7.03;3.42;;;30.50;56.20;;;;;;4838289;29;20033;-79
2021/07/27 08:50:26;;;;;;;7.30;2.85;;;30.50;57.00;;;;;;4822177;29;20088;-79
2021/07/27 08:52:53;;;;;;;7.55;3.13;;;30.40;54.70;;;;;;4838312;29;20087;-78
2021/07/27 08:55:19;;;;;;;;;;;30.50;56.40;;;;;;4838350;29;20042;-79
2021/07/27 08:57:55;;;;;;;62.85;13.18;;;30.60;56.50;;;;;;4837354;29;19974;-82
2021/07/27 09:00:20;;;;;;;5.70;3.40;;;30.70;59.50;;;;;;4838984;29;20041;-80
2021/07/27 09:02:46;;;;;;;7.30;3.60;;;30.80;56.60;;;;;;4837927;29;20038;-80
2021/07/27 09:05:13;;;;;;;3.43;3.00;;;31.00;56.80;;;;;;4838055;29;20030;-81
2021/07/27 09:07:39;;;;;;;5.25;3.10;;;31.10;56.40;;;;;;4839449;29;20030;-82
2021/07/27 09:10:23;;;;;;;5.00;3.05;;;31.30;55.20;;;;;;4824985;29;20034;-81
2021/07/27 09:13:05;;;;;;;5.22;2.58;;;31.40;55.00;;;;;;4840453;29;20085;-81
2021/07/27 09:15:37;;;;;;;6.53;2.97;;;31.40;56.30;;;;;;4839878;29;20033;-81
2021/07/27 09:18:30;;;;;;;3.63;3.00;;;31.50;55.40;;;;;;4823445;29;20037;-81
2021/07/27 09:20:57;;;;;;;4.60;2.72;;;31.60;56.00;;;;;;4782715;30;20055;-81
2021/07/27 09:23:28;;;;;;;2.92;2.33;;;31.70;55.40;;;;;;4788486;30;20060;-81
2021/07/27 09:25:56;;;;;;;6.07;3.35;;;31.70;54.70;;;;;;4773677;30;20035;-81
2021/07/27 09:28:24;;;;;;;10.85;4.20;;;31.70;53.30;;;;;;4792944;29;20031;-81
2021/07/27 09:30:56;;;;;;;5.63;2.97;;;31.80;54.90;;;;;;4789457;30;20031;-81
2021/07/27 09:33:29;;;;;;;3.15;2.65;;;32.00;55.60;;;;;;4780646;29;20083;-81
2021/07/27 09:35:54;;;;;;;4.90;2.97;;;32.00;52.40;;;;;;4791413;30;20354;-81
2021/07/27 09:38:20;;;;;;;3.50;2.83;;;32.10;52.50;;;;;;4789228;30;20043;-80
2021/07/27 09:40:51;;;;;;;2.90;2.60;;;32.00;54.30;;;;;;4775444;30;20034;-80
2021/07/27 09:43:22;;;;;;;6.13;3.20;;;32.20;53.70;;;;;;4791822;30;20027;-80
2021/07/27 09:45:50;;;;;;;4.57;3.05;;;32.40;54.40;;;;;;4787978;30;20114;-80
2021/07/27 09:48:18;;;;;;;9.05;3.20;;;32.40;51.20;;;;;;4792727;30;20125;-80
2021/07/27 09:50:45;;;;;;;3.10;2.80;;;32.10;49.70;;;;;;4803932;29;20045;-78
2021/07/27 09:53:11;;;;;;;6.10;3.05;;;32.00;52.00;;;;;;4811644;29;20320;-80
2021/07/27 09:55:37;;;;;;;7.10;2.90;;;32.00;50.70;;;;;;4787550;30;20035;-78
2021/07/27 09:58:03;;;;;;;3.70;2.90;;;32.00;51.60;;;;;;4828516;29;20038;-79
2021/07/27 10:00:30;;;;;;;4.13;2.90;;;32.00;53.10;;;;;;4840451;29;20207;-79
2021/07/27 10:02:57;;;;;;;8.73;3.25;;;32.00;53.70;;;;;;4824435;29;20067;-79
2021/07/27 10:05:25;;;;;;;4.03;3.15;;;32.00;53.30;;;;;;4840691;29;20065;-78
2021/07/27 10:07:59;;;;;;;3.67;2.97;;;32.10;52.60;;;;;;4825282;29;20078;-78
2021/07/27 10:10:43;;;;;;;4.97;2.92;;;32.10;53.30;;;;;;4825102;29;20206;-78
2021/07/27 10:13:14;;;;;;;3.55;2.78;;;32.20;52.70;;;;;;4824691;29;20037;-78
2021/07/27 10:15:42;;;;;;;3.70;3.33;;;32.20;50.70;;;;;;4839712;29;20030;-79
2021/07/27 10:18:08;;;;;;;3.38;3.08;;;32.10;51.80;;;;;;4839254;29;20034;-78
2021/07/27 10:20:34;;;;;;;3.80;3.28;;;31.90;50.60;;;;;;4839790;29;20082;-78
2021/07/27 10:23:11;;;;;;;8.10;3.60;;;31.80;51.50;;;;;;4840026;29;20030;-78
2021/07/27 10:25:37;;;;;;;3.42;2.88;;;31.80;50.30;;;;;;4839940;29;20318;-78
2021/07/27 10:28:03;;;;;;;3.67;3.00;;;31.80;51.70;;;;;;4823618;29;20030;-79
2021/07/27 10:30:34;;;;;;;6.03;3.33;;;31.90;49.30;;;;;;4835517;29;20035;-77
2021/07/27 10:33:02;;;;;;;5.65;2.90;;;31.90;50.20;;;;;;4834442;29;20034;-76
2021/07/27 10:35:29;;;;;;;5.20;3.17;;;32.00;50.20;;;;;;4835287;29;20031;-78
2021/07/27 10:38:13;;;;;;;6.68;2.72;;;31.90;51.60;;;;;;4839396;29;20034;-78
2021/07/27 10:40:42;;;;;;;3.78;3.25;;;32.10;51.30;;;;;;4834539;29;20128;-78
2021/07/27 10:43:09;;;;;;;3.75;3.08;;;32.20;50.00;;;;;;4833888;29;20030;-78
2021/07/27 10:45:36;;;;;;;3.60;3.00;;;32.30;50.60;;;;;;4834202;29;20325;-79
2021/07/27 10:48:02;;;;;;;4.22;3.13;;;32.40;49.10;;;;;;4837414;29;20054;-76
2021/07/27 10:50:32;;;;;;;4.05;3.20;;;32.50;50.10;;;;;;4834540;29;20370;-76
2021/07/27 10:53:13;;;;;;;4.05;2.78;;;32.40;49.30;;;;;;4834797;29;20106;-76
2021/07/27 10:55:43;;;;;;;6.63;3.88;;;32.40;49.40;;;;;;4815203;29;20031;-77
2021/07/27 10:58:17;;;;;;;4.90;3.13;;;32.50;47.40;;;;;;4807585;29;20034;-77
2021/07/27 11:00:42;;;;;;;4.68;3.38;;;32.60;50.70;;;;;;4833363;29;20512;-76
2021/07/27 11:03:08;;;;;;;5.10;3.30;;;32.70;47.40;;;;;;4834074;29;20026;-76
2021/07/27 11:05:34;;;;;;;6.33;3.27;;;32.60;48.90;;;;;;4817811;29;20033;-77
2021/07/27 11:08:00;;;;;;;3.38;2.95;;;32.80;48.60;;;;;;4833504;29;20034;-76
2021/07/27 11:10:26;;;;;;;8.33;3.53;;;33.10;50.20;;;;;;4817839;29;20030;-77
2021/07/27 11:12:56;;;;;;;9.52;3.33;;;33.30;48.70;;;;;;4817710;29;20329;-77
2021/07/27 11:15:24;;;;;;;5.10;3.15;;;33.20;45.90;;;;;;4817480;29;20046;-76
2021/07/27 11:18:00;;;;;;;5.22;3.28;;;33.00;48.40;;;;;;4834094;29;20045;-77
2021/07/27 11:20:37;;;;;;;5.10;3.20;;;32.90;48.40;;;;;;4834289;29;20046;-77
2021/07/27 11:23:18;;;;;;;3.90;3.15;;;33.10;48.80;;;;;;4817821;29;20679;-76
2021/07/27 11:25:58;;;;;;;6.25;3.33;;;33.30;46.70;;;;;;4832968;29;20026;-76
2021/07/27 11:28:40;;;;;;;4.43;3.13;;;33.40;47.60;;;;;;4817817;29;20034;-77
2021/07/27 11:31:17;;;;;;;4.22;2.78;;;33.30;46.40;;;;;;4806959;29;20118;-76
2021/07/27 11:33:50;;;;;;;8.23;3.50;;;33.10;45.50;;;;;;4834077;29;20249;-77
2021/07/27 11:36:24;;;;;;;5.10;2.83;;;33.00;45.70;;;;;;4833222;29;20056;-76
2021/07/27 11:38:50;;;;;;;4.50;3.42;;;33.00;45.30;;;;;;4832266;29;20091;-76
2021/07/27 11:41:19;;;;;;;7.28;2.80;;;33.00;46.10;;;;;;4816635;29;20045;-76
2021/07/27 11:43:48;;;;;;;3.20;2.58;;;32.90;45.00;;;;;;4830736;29;20039;-77
2021/07/27 11:46:16;;;;;;;4.38;3.08;;;32.90;45.50;;;;;;4828910;29;20046;-76
2021/07/27 11:48:43;;;;;;;9.88;3.13;;;32.70;48.10;;;;;;4832824;29;20256;-76
2021/07/27 11:51:09;;;;;;;4.88;3.42;;;32.90;47.50;;;;;;4832790;29;20030;-76
2021/07/27 11:53:41;;;;;;;6.00;3.40;;;33.00;48.20;;;;;;4835261;29;20034;-78
2021/07/27 11:56:15;;;;;;;6.85;3.28;;;32.90;48.50;;;;;;4836350;29;20086;-78
2021/07/27 11:58:42;;;;;;;11.07;3.67;;;33.00;48.10;;;;;;4815447;29;20134;-77
2021/07/27 12:01:08;;;;;;;5.45;3.33;;;33.30;47.30;;;;;;4835102;29;20143;-77
2021/07/27 12:03:34;;;;;;;5.05;3.35;;;33.30;49.60;;;;;;4835375;29;20051;-77
2021/07/27 12:06:13;;;;;;;4.13;2.73;;;33.30;46.40;;;;;;4819613;29;20022;-77
2021/07/27 12:08:40;;;;;;;5.72;2.63;;;33.20;49.30;;;;;;4833974;29;20035;-78
2021/07/27 12:11:06;;;;;;;8.10;4.18;;;33.20;49.60;;;;;;4813718;29;20098;-77
2021/07/27 12:13:32;;;;;;;4.78;3.10;;;33.40;48.00;;;;;;4815063;29;20030;-77
2021/07/27 12:15:59;;;;;;;6.80;3.40;;;33.50;46.00;;;;;;4817988;29;20330;-77
2021/07/27 12:18:24;;;;;;;;;;;33.50;48.40;;;;;;4832881;29;20080;-76
2021/07/27 12:20:51;;;;;;;5.22;3.40;;;33.70;47.60;;;;;;4832667;29;19908;-77
2021/07/27 12:23:20;;;;;;;5.90;3.40;;;33.90;49.20;;;;;;4831472;29;20043;-76
2021/07/27 12:25:49;;;;;;;4.43;3.03;;;34.10;46.50;;;;;;4833057;29;20018;-79
2021/07/27 12:28:15;;;;;;;5.78;3.65;;;33.90;45.70;;;;;;4834394;29;20029;-77
2021/07/27 12:30:41;;;;;;;5.80;3.55;;;33.60;48.60;;;;;;4832025;29;20030;-76
2021/07/27 12:33:07;;;;;;;8.52;3.15;;;33.60;48.40;;;;;;4831806;29;20090;-77
2021/07/27 12:35:33;;;;;;;3.77;3.13;;;33.60;47.90;;;;;;4833486;29;20057;-76
2021/07/27 12:37:59;;;;;;;6.90;2.95;;;33.70;48.20;;;;;;4832221;29;20034;-76
2021/07/27 12:40:25;;;;;;;3.40;3.00;;;33.60;47.80;;;;;;4832083;29;20107;-76
2021/07/27 12:42:51;;;;;;;4.60;3.30;;;33.60;48.20;;;;;;4831691;29;20113;-76
2021/07/27 12:45:16;;;;;;;5.63;3.73;;;33.60;49.60;;;;;;4829790;29;20030;-76
2021/07/27 12:47:42;;;;;;;5.27;3.50;;;33.60;48.20;;;;;;4831895;29;20317;-76
2021/07/27 12:50:08;;;;;;;7.23;3.47;;;33.70;48.00;;;;;;4831918;29;20031;-76
2021/07/27 12:52:35;;;;;;;8.88;4.65;;;33.80;49.40;;;;;;4831808;29;20042;-76
2021/07/27 12:55:02;;;;;;;6.85;3.67;;;33.80;47.00;;;;;;4836186;29;20317;-76
2021/07/27 12:57:28;;;;;;;7.05;3.78;;;33.70;47.90;;;;;;4836093;29;20251;-77
2021/07/27 12:59:53;;;;;;;8.17;4.23;;;33.80;48.10;;;;;;4817962;29;20057;-77
2021/07/27 13:02:22;;;;;;;7.57;3.50;;;33.90;46.70;;;;;;4819424;29;20219;-76
2021/07/27 13:04:48;;;;;;;5.03;3.30;;;34.10;46.90;;;;;;4836002;29;20033;-76
2021/07/27 13:07:14;;;;;;;5.30;3.38;;;34.10;45.60;;;;;;4834757;29;20057;-75
2021/07/27 13:09:40;;;;;;;5.05;2.95;;;34.00;45.90;;;;;;4835236;29;20027;-77
2021/07/27 13:12:06;;;;;;;6.53;3.10;;;33.90;45.40;;;;;;4835957;29;20326;-77
2021/07/27 13:14:32;;;;;;;4.90;3.47;;;33.80;46.50;;;;;;4835909;29;20031;-77
2021/07/27 13:17:00;;;;;;;8.60;4.13;;;33.60;46.30;;;;;;4836045;29;20374;-76
2021/07/27 13:19:26;;;;;;;6.10;3.55;;;33.60;50.00;;;;;;4834288;29;20285;-76
2021/07/27 13:21:52;;;;;;;5.67;3.07;;;33.70;50.10;;;;;;4832787;29;20062;-75
2021/07/27 13:24:18;;;;;;;3.73;3.33;;;33.70;47.70;;;;;;4834309;29;20071;-77
2021/07/27 13:26:44;;;;;;;5.20;3.08;;;33.80;48.60;;;;;;4833283;29;20027;-77
2021/07/27 13:29:09;;;;;;;8.48;3.42;;;34.00;45.30;;;;;;4835526;29;20027;-77
2021/07/27 13:31:35;;;;;;;7.10;3.33;;;33.90;47.60;;;;;;4834125;29;20077;-76
2021/07/27 13:34:01;;;;;;;9.67;3.13;;;33.90;47.00;;;;;;4835192;29;20035;-76
2021/07/27 13:36:27;;;;;;;6.70;3.67;;;33.80;47.70;;;;;;4835715;29;20071;-76
2021/07/27 13:38:52;;;;;;;7.33;3.97;;;33.90;47.10;;;;;;4833658;29;20026;-77
2021/07/27 13:41:18;;;;;;;6.43;3.87;;;33.90;47.70;;;;;;4819004;29;20329;-77
2021/07/27 13:43:45;;;;;;;5.50;3.37;;;33.90;48.00;;;;;;4835195;29;20098;-77
2021/07/27 13:46:10;;;;;;;8.25;3.42;;;33.90;46.50;;;;;;4834440;29;20035;-77
2021/07/27 13:48:36;;;;;;;4.33;3.13;;;34.00;47.70;;;;;;4833570;29;20106;-77
2021/07/27 13:51:02;;;;;;;5.57;3.50;;;34.00;48.90;;;;;;4834135;29;20038;-76
2021/07/27 13:53:28;;;;;;;6.83;3.60;;;34.00;47.30;;;;;;4835052;29;20026;-77
2021/07/27 13:55:56;;;;;;;5.03;3.10;;;33.90;46.90;;;;;;4835024;29;20055;-77
2021/07/27 13:58:22;;;;;;;9.57;3.50;;;33.80;47.00;;;;;;4835142;29;20235;-76
2021/07/27 14:00:47;;;;;;;7.40;4.20;;;33.80;47.70;;;;;;4834055;29;20066;-77
2021/07/27 14:03:13;;;;;;;8.63;3.87;;;33.80;48.50;;;;;;4832530;29;20310;-77
2021/07/27 14:05:39;;;;;;;6.33;3.70;;;33.90;49.30;;;;;;4834031;29;20087;-76
2021/07/27 14:08:05;;;;;;;;;;;33.90;47.80;;;;;;4801232;29;20050;-77
2021/07/27 14:10:31;;;;;;;5.15;3.60;;;33.90;48.70;;;;;;4833587;29;19957;-76
2021/07/27 14:12:57;;;;;;;9.47;3.50;;;33.90;48.10;;;;;;4834958;29;20043;-76
2021/07/27 14:15:22;;;;;;;10.03;3.83;;;33.70;48.70;;;;;;4832775;29;20027;-76
2021/07/27 14:17:49;;;;;;;5.50;3.20;;;33.70;48.00;;;;;;4835021;29;20037;-77
2021/07/27 14:20:15;;;;;;;5.10;3.28;;;33.80;48.30;;;;;;4833379;29;20034;-77
2021/07/27 14:22:40;;;;;;;4.82;3.22;;;33.80;47.10;;;;;;4833214;29;20053;-77
2021/07/27 14:25:08;;;;;;;7.47;3.10;;;33.70;46.90;;;;;;4832839;29;20224;-77
2021/07/27 14:27:34;;;;;;;4.45;3.15;;;33.80;48.20;;;;;;4833275;29;20045;-76
2021/07/27 14:29:59;;;;;;;7.23;3.17;;;33.90;47.50;;;;;;4819098;29;20025;-76
2021/07/27 14:32:25;;;;;;;7.87;3.60;;;33.90;46.60;;;;;;4834242;29;20034;-77
2021/07/27 14:34:51;;;;;;;7.47;3.70;;;33.90;46.00;;;;;;4833934;29;20045;-77
2021/07/27 14:37:17;;;;;;;5.67;3.37;;;33.90;46.40;;;;;;4816244;29;20578;-77
2021/07/27 14:39:42;;;;;;;7.53;3.20;;;33.90;46.20;;;;;;4836054;29;20091;-76
2021/07/27 14:42:08;;;;;;;5.47;3.63;;;33.90;46.40;;;;;;4833474;29;20068;-76
2021/07/27 14:44:34;;;;;;;4.75;3.13;;;33.90;47.80;;;;;;4842848;29;20058;-76
2021/07/27 14:47:00;;;;;;;8.63;3.50;;;33.80;46.40;;;;;;4814866;29;20057;-76
2021/07/27 14:49:26;;;;;;;12.80;3.80;;;33.70;47.00;;;;;;4814042;29;20103;-77
2021/07/27 14:51:52;;;;;;;11.97;4.30;;;33.60;47.30;;;;;;4825457;29;20062;-76
2021/07/27 14:54:17;;;;;;;7.17;3.67;;;33.60;46.90;;;;;;4833450;29;20037;-76
2021/07/27 14:56:43;;;;;;;7.07;3.73;;;33.60;48.10;;;;;;4832707;29;20034;-76
2021/07/27 14:59:09;;;;;;;6.87;3.80;;;33.60;47.00;;;;;;4832991;29;20066;-78
2021/07/27 15:01:35;;;;;;;8.52;3.83;;;33.60;46.70;;;;;;4834145;29;20034;-77
2021/07/27 15:04:01;;;;;;;5.00;4.10;;;33.60;47.60;;;;;;4832411;29;20065;-77
2021/07/27 15:06:27;;;;;;;11.87;3.60;;;33.50;47.20;;;;;;4833654;29;20091;-77
2021/07/27 15:08:53;;;;;;;6.83;4.03;;;33.40;47.80;;;;;;4817631;29;20068;-78
2021/07/27 15:11:19;;;;;;;10.97;4.10;;;33.40;48.70;;;;;;4833225;29;20279;-77
2021/07/27 15:13:45;;;;;;;8.77;4.60;;;33.40;48.10;;;;;;4834168;29;20344;-76
2021/07/27 15:16:11;;;;;;;9.90;3.67;;;33.50;48.30;;;;;;4829583;29;20357;-76
2021/07/27 15:18:37;;;;;;;12.25;3.83;;;33.60;48.40;;;;;;4817294;29;20042;-74
2021/07/27 15:21:03;;;;;;;7.87;3.83;;;33.70;46.80;;;;;;4832082;29;20034;-76
2021/07/27 15:23:29;;;;;;;10.02;3.55;;;33.70;46.80;;;;;;4817165;29;20191;-76
2021/07/27 15:25:55;;;;;;;9.67;4.80;;;33.70;46.60;;;;;;4832405;29;20049;-76
2021/07/27 15:28:20;;;;;;;6.53;4.10;;;33.60;48.70;;;;;;4831937;29;20071;-77
2021/07/27 15:30:47;;;;;;;8.00;3.33;;;33.60;47.50;;;;;;4832684;29;20105;-76
2021/07/27 15:33:13;;;;;;;8.65;3.42;;;33.50;47.20;;;;;;4832671;29;20274;-77
2021/07/27 15:35:39;;;;;;;9.18;4.22;;;33.50;47.60;;;;;;4833097;29;20022;-75